| time (UTC) | temp F | wind direction | speed MPH | gust MPH | rain 1hr in | rain 24hr in | rain mn in | humidity % | barometer mb |
| 20260509011030 | 58 | 0.0 | 0.0 | 0.00 | 0.00 | 0.00 | 43 | 1001.8 | |
| 20260509010019 | 59 | 0.0 | 0.0 | 0.00 | 0.00 | 0.00 | 41 | 1001.9 | |
| 20260509005019 | 60 | 0.0 | 0.0 | 0.00 | 0.00 | 0.00 | 38 | 1001.9 | |
| 20260509004027 | 61 | 0.0 | 0.0 | 0.00 | 0.00 | 0.00 | 37 | 1002.0 | |
| 20260509003018 | 62 | 0.0 | 0.0 | 0.00 | 0.00 | 0.00 | 35 | 1001.9 | |
| 20260509002027 | 63 | 0.0 | 0.0 | 0.00 | 0.00 | 0.00 | 34 | 1002.2 | |
| 20260509001018 | 64 | 0.0 | 0.0 | 0.00 | 0.00 | 0.00 | 32 | 1002.2 | |
| 20260509000048 | 64 | 0.0 | 0.0 | 0.00 | 0.00 | 0.00 | 31 | 1002.1 | |
| 20260508235019 | 65 | 0.0 | 1.0 | 0.00 | 0.00 | 0.00 | 32 | 1002.0 | |
| 20260508234045 | 65 | 0.0 | 5.0 | 0.00 | 0.00 | 0.00 | 31 | 1002.2 | |
| 20260508233027 | 65 | 23 | 1.0 | 4.0 | 0.00 | 0.00 | 0.00 | 28 | 1002.3 |
| 20260508232019 | 66 | 0.0 | 6.0 | 0.00 | 0.00 | 0.00 | 29 | 1002.2 | |
| 20260508231018 | 66 | 0.0 | 3.0 | 0.00 | 0.00 | 0.00 | 30 | 1002.2 | |
| 20260508230045 | 66 | 0.0 | 3.0 | 0.00 | 0.00 | 0.00 | 27 | 1002.2 | |
| 20260508225027 | 67 | 225 | 1.0 | 5.0 | 0.00 | 0.00 | 0.00 | 26 | 1002.3 |
| 20260508224039 | 67 | 0.0 | 2.0 | 0.00 | 0.00 | 0.00 | 27 | 1002.4 | |
| 20260508223050 | 66 | 0.0 | 3.0 | 0.00 | 0.00 | 0.00 | 26 | 1002.5 | |
| 20260508222018 | 66 | 0.0 | 1.0 | 0.00 | 0.00 | 0.00 | 27 | 1002.6 | |
| 20260508221027 | 67 | 0.0 | 0.0 | 0.00 | 0.00 | 0.00 | 31 | 1002.6 | |
| 20260508220018 | 67 | 0.0 | 0.0 | 0.00 | 0.00 | 0.00 | 27 | 1002.6 | |
| 20260508215029 | 66 | 0.0 | 1.0 | 0.00 | 0.00 | 0.00 | 27 | 1002.7 | |
| 20260508214019 | 66 | 0.0 | 2.0 | 0.00 | 0.00 | 0.00 | 25 | 1002.7 | |
| 20260508213026 | 67 | 0.0 | 4.0 | 0.00 | 0.00 | 0.00 | 26 | 1002.8 | |
| 20260508212020 | 67 | 158 | 1.0 | 7.0 | 0.00 | 0.00 | 0.00 | 27 | 1002.9 |
| 20260508211035 | 66 | 0.0 | 3.0 | 0.00 | 0.00 | 0.00 | 27 | 1003.1 | |
| 20260508210018 | 66 | 0.0 | 2.0 | 0.00 | 0.00 | 0.00 | 31 | 1003.3 | |
| 20260508205027 | 66 | 248 | 1.0 | 5.0 | 0.00 | 0.00 | 0.00 | 28 | 1003.5 |
| 20260508204035 | 67 | 158 | 1.0 | 6.0 | 0.00 | 0.00 | 0.00 | 25 | 1003.7 |
| 20260508203035 | 67 | 0.0 | 1.0 | 0.00 | 0.00 | 0.00 | 27 | 1003.8 | |
| 20260508202018 | 66 | 0.0 | 2.0 | 0.00 | 0.00 | 0.00 | 27 | 1003.9 | |
| 20260508201018 | 67 | 158 | 1.0 | 5.0 | 0.00 | 0.00 | 0.00 | 26 | 1004.0 |
| 20260508200019 | 67 | 0.0 | 1.0 | 0.00 | 0.00 | 0.00 | 25 | 1004.3 | |
| 20260508195018 | 68 | 203 | 1.0 | 10.0 | 0.00 | 0.00 | 0.00 | 26 | 1004.4 |
| 20260508194044 | 68 | 0.0 | 4.0 | 0.00 | 0.00 | 0.00 | 25 | 1004.6 | |
| 20260508193018 | 67 | 0.0 | 1.0 | 0.00 | 0.00 | 0.00 | 29 | 1004.9 | |
| 20260508192037 | 69 | 248 | 1.0 | 9.0 | 0.00 | 0.00 | 0.00 | 23 | 1004.9 |
| 20260508191029 | 69 | 0.0 | 4.0 | 0.00 | 0.00 | 0.00 | 27 | 1005.2 | |
| 20260508190038 | 68 | 248 | 1.0 | 5.0 | 0.00 | 0.00 | 0.00 | 25 | 1005.2 |
| 20260508185109 | 67 | 135 | 2.0 | 8.0 | 0.00 | 0.00 | 0.00 | 25 | 1005.3 |
| 20260508184018 | 67 | 0.0 | 3.0 | 0.00 | 0.00 | 0.00 | 26 | 1005.5 | |
| 20260508183029 | 66 | 225 | 1.0 | 5.0 | 0.00 | 0.00 | 0.00 | 27 | 1005.7 |
| 20260508182020 | 65 | 68 | 1.0 | 5.0 | 0.00 | 0.00 | 0.00 | 27 | 1005.8 |
| 20260508181036 | 65 | 0.0 | 6.0 | 0.00 | 0.00 | 0.00 | 26 | 1005.9 | |
| 20260508180157 | 66 | 68 | 1.0 | 8.0 | 0.00 | 0.00 | 0.00 | 28 | 1006.1 |
| 20260508175529 | 66 | 158 | 1.0 | 6.0 | 0.00 | 0.00 | 0.00 | 26 | 1006.1 |
| 20260508174559 | 65 | 248 | 1.0 | 4.0 | 0.00 | 0.00 | 0.00 | 30 | 1006.4 |
| 20260508173529 | 64 | 225 | 1.0 | 5.0 | 0.00 | 0.00 | 0.00 | 27 | 1006.5 |
| 20260508172540 | 64 | 0.0 | 4.0 | 0.00 | 0.00 | 0.00 | 29 | 1006.8 | |
| 20260508171536 | 65 | 0.0 | 3.0 | 0.00 | 0.00 | 0.00 | 26 | 1007.0 | |
| 20260508170520 | 65 | 0.0 | 5.0 | 0.00 | 0.00 | 0.00 | 28 | 1007.2 | |
| 20260508165529 | 64 | 0.0 | 3.0 | 0.00 | 0.00 | 0.00 | 29 | 1007.4 | |
| 20260508164518 | 65 | 225 | 1.0 | 5.0 | 0.00 | 0.00 | 0.00 | 27 | 1007.4 |
| 20260508163518 | 66 | 0.0 | 4.0 | 0.00 | 0.00 | 0.00 | 30 | 1007.7 | |
| 20260508162520 | 65 | 0.0 | 3.0 | 0.00 | 0.00 | 0.00 | 29 | 1007.9 | |
| 20260508161528 | 64 | 0.0 | 8.0 | 0.00 | 0.00 | 0.00 | 30 | 1007.9 | |
| 20260508160518 | 63 | 225 | 1.0 | 4.0 | 0.00 | 0.00 | 0.00 | 29 | 1008.0 |
| 20260508155540 | 63 | 225 | 1.0 | 6.0 | 0.00 | 0.00 | 0.00 | 30 | 1008.2 |
| 20260508154520 | 62 | 203 | 1.0 | 5.0 | 0.00 | 0.00 | 0.00 | 31 | 1008.2 |
| 20260508153528 | 62 | 248 | 2.0 | 6.0 | 0.00 | 0.00 | 0.00 | 31 | 1008.4 |
| 20260508152537 | 62 | 225 | 1.0 | 5.0 | 0.00 | 0.00 | 0.00 | 30 | 1008.5 |
| 20260508151518 | 61 | 225 | 1.0 | 5.0 | 0.00 | 0.00 | 0.00 | 33 | 1008.6 |
| 20260508150528 | 60 | 180 | 2.0 | 5.0 | 0.00 | 0.00 | 0.00 | 34 | 1008.7 |
| 20260508145529 | 59 | 0.0 | 6.0 | 0.00 | 0.00 | 0.00 | 36 | 1008.9 | |
| 20260508144518 | 58 | 0.0 | 3.0 | 0.00 | 0.00 | 0.00 | 35 | 1008.7 | |
| 20260508143546 | 58 | 0.0 | 3.0 | 0.00 | 0.00 | 0.00 | 34 | 1008.8 | |
| 20260508142540 | 57 | 0.0 | 5.0 | 0.00 | 0.00 | 0.00 | 36 | 1009.0 | |
| 20260508141520 | 56 | 0.0 | 1.0 | 0.00 | 0.00 | 0.00 | 40 | 1009.0 | |
| 20260508140557 | 56 | 0.0 | 4.0 | 0.00 | 0.00 | 0.00 | 41 | 1009.1 | |
| 20260508135538 | 54 | 0.0 | 3.0 | 0.00 | 0.00 | 0.00 | 43 | 1009.2 | |
| 20260508134529 | 53 | 0.0 | 4.0 | 0.00 | 0.00 | 0.00 | 42 | 1009.1 | |
| 20260508133537 | 51 | 0.0 | 2.0 | 0.00 | 0.00 | 0.00 | 50 | 1009.2 | |
| 20260508132537 | 49 | 0.0 | 2.0 | 0.00 | 0.00 | 0.00 | 54 | 1009.3 | |
| 20260508131520 | 47 | 0.0 | 2.0 | 0.00 | 0.00 | 0.00 | 55 | 1009.3 | |
| 20260508130608 | 46 | 0.0 | 0.0 | 0.00 | 0.00 | 0.00 | 59 | 1009.3 | |
| 20260508125520 | 44 | 0.0 | 0.0 | 0.00 | 0.00 | 0.00 | 60 | 1009.3 | |
| 20260508124621 | 43 | 0.0 | 1.0 | 0.00 | 0.00 | 0.00 | 65 | 1009.3 | |
| 20260508123520 | 42 | 0.0 | 1.0 | 0.00 | 0.00 | 0.00 | 68 | 1009.2 | |
| 20260508122519 | 41 | 0.0 | 0.0 | 0.00 | 0.00 | 0.00 | 70 | 1009.2 | |
| 20260508121520 | 39 | 0.0 | 0.0 | 0.00 | 0.00 | 0.00 | 72 | 1009.1 | |
| 20260508120528 | 37 | 0.0 | 0.0 | 0.00 | 0.00 | 0.00 | 75 | 1008.9 | |
| 20260508115520 | 35 | 0.0 | 0.0 | 0.00 | 0.00 | 0.00 | 78 | 1008.8 | |
| 20260508114606 | 33 | 0.0 | 0.0 | 0.00 | 0.00 | 0.00 | 81 | 1008.7 | |
| 20260508113519 | 32 | 0.0 | 0.0 | 0.00 | 0.00 | 0.00 | 82 | 1008.5 | |
| 20260508113019 | 32 | 0.0 | 0.0 | 0.00 | 0.00 | 0.00 | 82 | 1008.6 | |
| 20260508112040 | 32 | 0.0 | 0.0 | 0.00 | 0.00 | 0.00 | 82 | 1008.6 | |
| 20260508111020 | 31 | 0.0 | 0.0 | 0.00 | 0.00 | 0.00 | 82 | 1008.5 | |
| 20260508110028 | 31 | 0.0 | 0.0 | 0.00 | 0.00 | 0.00 | 82 | 1008.4 | |
| 20260508105020 | 31 | 0.0 | 0.0 | 0.00 | 0.00 | 0.00 | 82 | 1008.4 | |
| 20260508104020 | 30 | 0.0 | 0.0 | 0.00 | 0.00 | 0.00 | 83 | 1008.6 | |
| 20260508103040 | 30 | 0.0 | 0.0 | 0.00 | 0.00 | 0.00 | 83 | 1008.5 | |
| 20260508102020 | 30 | 0.0 | 0.0 | 0.00 | 0.00 | 0.00 | 82 | 1008.5 | |
| 20260508101019 | 30 | 0.0 | 0.0 | 0.00 | 0.00 | 0.00 | 82 | 1008.4 | |
| 20260508100020 | 30 | 0.0 | 0.0 | 0.00 | 0.00 | 0.00 | 82 | 1008.6 | |
| 20260508095020 | 30 | 0.0 | 0.0 | 0.00 | 0.00 | 0.00 | 81 | 1008.6 | |
| 20260508094019 | 29 | 0.0 | 0.0 | 0.00 | 0.00 | 0.00 | 81 | 1008.6 | |
| 20260508093019 | 30 | 0.0 | 0.0 | 0.00 | 0.00 | 0.00 | 83 | 1008.7 | |
| 20260508092156 | 30 | 0.0 | 0.0 | 0.00 | 0.00 | 0.00 | 83 | 1008.7 | |
| 20260508091539 | 30 | 0.0 | 0.0 | 0.00 | 0.00 | 0.00 | 83 | 1008.8 | |
| 20260508090519 | 30 | 0.0 | 0.0 | 0.00 | 0.00 | 0.00 | 82 | 1008.8 | |
| 20260508085519 | 30 | 0.0 | 0.0 | 0.00 | 0.00 | 0.00 | 82 | 1008.9 | |
| 20260508084519 | 29 | 0.0 | 0.0 | 0.00 | 0.00 | 0.00 | 83 | 1008.8 | |
| 20260508083519 | 29 | 0.0 | 0.0 | 0.00 | 0.00 | 0.00 | 82 | 1008.9 | |
| 20260508082520 | 29 | 0.0 | 0.0 | 0.00 | 0.00 | 0.00 | 83 | 1008.8 | |
| 20260508081519 | 29 | 0.0 | 0.0 | 0.00 | 0.00 | 0.00 | 83 | 1008.8 | |
| 20260508080540 | 29 | 0.0 | 0.0 | 0.00 | 0.00 | 0.00 | 83 | 1009.1 | |
| 20260508075605 | 30 | 0.0 | 0.0 | 0.00 | 0.00 | 0.00 | 83 | 1009.2 | |
| 20260508074519 | 30 | 0.0 | 0.0 | 0.00 | 0.00 | 0.00 | 83 | 1009.4 | |
| 20260508073519 | 30 | 0.0 | 0.0 | 0.00 | 0.00 | 0.00 | 85 | 1009.3 | |
| 20260508072519 | 30 | 0.0 | 0.0 | 0.00 | 0.00 | 0.00 | 84 | 1009.3 | |
| 20260508071802 | 30 | 0.0 | 0.0 | 0.00 | 0.00 | 0.00 | 84 | 1009.5 | |
| 20260508070519 | 30 | 0.0 | 0.0 | 0.00 | 0.00 | 0.00 | 84 | 1009.6 | |
| 20260508065519 | 30 | 0.0 | 0.0 | 0.00 | 0.00 | 0.00 | 84 | 1009.7 | |
| 20260508064528 | 31 | 0.0 | 0.0 | 0.00 | 0.00 | 0.00 | 85 | 1009.7 | |
| 20260508063528 | 31 | 0.0 | 0.0 | 0.00 | 0.00 | 0.00 | 86 | 1009.7 | |
| 20260508062520 | 31 | 0.0 | 0.0 | 0.00 | 0.00 | 0.00 | 85 | 1009.8 | |
| 20260508061536 | 31 | 0.0 | 0.0 | 0.00 | 0.00 | 0.00 | 84 | 1009.9 | |
| 20260508060536 | 31 | 0.0 | 0.0 | 0.00 | 0.00 | 0.00 | 85 | 1009.9 | |
| 20260508055528 | 31 | 0.0 | 0.0 | 0.00 | 0.00 | 0.00 | 86 | 1010.0 | |
| 20260508054519 | 31 | 0.0 | 0.0 | 0.00 | 0.00 | 0.00 | 86 | 1010.0 | |
| 20260508053520 | 31 | 0.0 | 0.0 | 0.00 | 0.00 | 0.00 | 86 | 1010.0 | |
| 20260508052519 | 31 | 0.0 | 0.0 | 0.00 | 0.00 | 0.00 | 85 | 1010.1 | |
| 20260508051519 | 31 | 0.0 | 0.0 | 0.00 | 0.00 | 0.00 | 85 | 1010.1 | |
| 20260508050539 | 31 | 0.0 | 0.0 | 0.00 | 0.00 | 0.00 | 85 | 1010.3 | |
| 20260508045519 | 32 | 0.0 | 0.0 | 0.00 | 0.00 | 0.00 | 85 | 1010.3 | |
| 20260508044519 | 32 | 0.0 | 0.0 | 0.00 | 0.00 | 0.00 | 84 | 1010.2 | |
| 20260508043527 | 32 | 0.0 | 0.0 | 0.00 | 0.00 | 0.00 | 83 | 1010.2 | |
| 20260508042519 | 32 | 0.0 | 0.0 | 0.00 | 0.00 | 0.00 | 84 | 1010.2 | |
| 20260508041519 | 32 | 0.0 | 0.0 | 0.00 | 0.00 | 0.00 | 83 | 1010.3 | |
| 20260508040607 | 33 | 0.0 | 0.0 | 0.00 | 0.00 | 0.00 | 82 | 1010.3 | |
| 20260508035539 | 33 | 0.0 | 0.0 | 0.00 | 0.00 | 0.00 | 82 | 1010.3 | |
| 20260508034527 | 33 | 0.0 | 0.0 | 0.00 | 0.00 | 0.00 | 82 | 1010.1 | |
| 20260508033527 | 34 | 0.0 | 0.0 | 0.00 | 0.00 | 0.00 | 81 | 1010.2 | |
| 20260508032536 | 34 | 0.0 | 0.0 | 0.00 | 0.00 | 0.00 | 79 | 1010.2 | |
| 20260508031519 | 34 | 0.0 | 0.0 | 0.00 | 0.00 | 0.00 | 78 | 1010.1 | |
| 20260508030519 | 35 | 0.0 | 0.0 | 0.00 | 0.00 | 0.00 | 74 | 1010.2 | |
| 20260508025548 | 35 | 0.0 | 0.0 | 0.00 | 0.00 | 0.00 | 74 | 1010.2 | |
| 20260508024518 | 36 | 0.0 | 0.0 | 0.00 | 0.00 | 0.00 | 72 | 1010.1 | |
| 20260508023519 | 37 | 0.0 | 0.0 | 0.00 | 0.00 | 0.00 | 70 | 1010.1 | |
| 20260508022519 | 37 | 0.0 | 0.0 | 0.00 | 0.00 | 0.00 | 68 | 1010.1 | |
| 20260508021519 | 38 | 0.0 | 0.0 | 0.00 | 0.00 | 0.00 | 68 | 1010.0 | |
| 20260508020536 | 39 | 0.0 | 0.0 | 0.00 | 0.00 | 0.00 | 64 | 1010.0 | |
| 20260508015519 | 40 | 0.0 | 0.0 | 0.00 | 0.00 | 0.00 | 62 | 1010.0 | |
| 20260508014539 | 41 | 0.0 | 0.0 | 0.00 | 0.00 | 0.00 | 61 | 1009.6 | |
| 20260508013519 | 42 | 0.0 | 0.0 | 0.00 | 0.00 | 0.00 | 58 | 1009.7 | |
| 20260508012527 | 43 | 0.0 | 0.0 | 0.00 | 0.00 | 0.00 | 57 | 1009.7 |